Airfield :
LOGIN :

Register | Disclaimer

   EN    FR    IT 

 










Legend :    VFR   Marginal VFR   IFR   Intensive IFR   Very Intensive IFR
Visi :
Ceiling :
>= 8 km
>= 3000ft
5 to 8 km
1000 to 3000 ft
1500m to 5 km
500 to 1000 ft
800 to 1500m
200 to 500 ft
< 800m
< 200 ft
Symbols :   Thunderstorms  Fog  Heavy snow  Heavy precipitations  Wind > 20 kt
SIGMETs :     Misc.  Thunderstorms  Icing  Turbulence  Mountain Waves  Volcanic Ashes







- Airport Elevation : 39 ft
- IATA code : SUF


LICA - Lamezia Terme

CURRENT METAR :
  • 250550Z 21006KT 190V250 9999 FEW015 SCT020 19/15 Q1015

EXPIRED METARs :
  • 250450Z 21006KT 9999 SCT015 18/15 Q1015
  • 250350Z 21004KT 190V260 9999 SCT015 17/14 Q1015

TAF TAF LICA
Valid from the 25 at 06:00 until the 26 at 06:00 UTC


250500Z 2506/2606 VRB05KT 9999 SCT020
BECMG 2508/2510 09012KT
BECMG 2517/2519 VRB05KT
No reported NOTAMs for that airfield.
2 SIGMETs reported for the Roma FIR (LIRR) :
 
Embedded thunderstorms
LIRR SIGMET 4 VALID 250500/250800 LIIB- LIRR ROMA FIR EMBD TS FCST WI N4255 E01301 - N4333 E01322 - N4331 E01151 - N4259 E01150 - N4211 E01222 - N3952 E01436 - N3903 E01618 - N4055 E01519 - N4109 E01507 - N4125 E01422 - N4255 E01301 TOP FL390 MOV S NC=
Severe turbulence
LIRR SIGMET 3 VALID 250500/250800 LIIB- LIRR ROMA FIR SEV TURB FCST WI N4331 E01316 - N4333 E01248 - N4252 E01234 - N4058 E01333 - N4021 E01443 - N4015 E01538 - N4110 E01512 - N4125 E01418 - N4301 E01307 - N4331 E01316 FL240/390 MOV SE WKN=



MET'MAP, your aeronautical weather chart ! - Copyright ORBIFLY December 2007 - Disclaimer

ORBIFLY MET'MAP TEAM :

Programming & Development : Alexandra Zaïnal
Concept & Development : Baudouin d'Aumeries
Co-Development & Prog : Marc-Olivier Méhu
Technical & hardware support : Manuel Goepfert

Contact : metmap@orbifly.com




SOURCES & CREDITS :

   NOAA